Latest Weather Observations for Coonabarabran Airport

IDN60801

Issued at 4:35 pm EST Tuesday 29 July 2014 (issued every 30 minutes, with the page automatically refreshed every 10 minutes)

About weather observations | Map of weather stations | Latest weather observations for NSW | Other Formats
Station Details ID: 064017 Name: COONABARABRAN AIRPORT AWS Lat: -31.33 Lon: 149.27 Height: 645.0 m
Data from the previous 72 hours. | See also: Recent months for locations in New South Wales
Date/Time
EST
Temp
°C
App
Temp
°C
Dew
Point
Rel
Hum
%
Delta-T
°C
Wind Press
QNH
hPa
Press
MSL
hPa
Rain
since 9 am
mm
Dir
 
Spd
km/h
Gust
km/h
Spd
kts
Gust
kts
29/04:30pm 15.0 10.1 2.2 42 5.9 NW 17 22 9 12 1020.0 - 0.0
29/04:00pm 15.2 10.5 3.0 44 5.7 NW 17 20 9 11 1020.4 1020.6 0.0
29/03:30pm 15.7 10.4 1.8 39 6.4 NW 19 22 10 12 1020.3 - 0.0
29/03:00pm 15.8 10.8 1.2 37 6.6 W 17 22 9 12 1020.5 1020.7 0.0
29/02:30pm 16.2 10.9 2.9 41 6.3 W 20 24 11 13 1021.1 - 0.0
29/02:00pm 15.5 10.8 3.3 44 5.7 NNW 17 24 9 13 1021.0 1021.1 0.0
29/01:30pm 16.2 10.6 3.6 43 6.0 NW 22 30 12 16 1020.9 - 0.0
29/01:00pm 15.5 9.8 3.0 43 5.8 NNW 22 32 12 17 1021.0 1021.1 0.0
29/12:30pm 15.5 10.8 3.3 44 5.8 NW 17 28 9 15 1021.7 - 0.0
29/12:00pm 15.2 9.9 3.0 44 5.7 NNW 20 32 11 17 1022.2 1022.4 0.0
29/11:30am 14.3 9.1 3.7 49 5.0 NNW 20 26 11 14 1023.1 - 0.0
29/11:00am 13.5 8.6 4.1 53 4.4 N 19 26 10 14 1023.4 1023.6 0.0
29/10:30am 13.0 8.1 3.9 54 4.3 NNW 19 24 10 13 1023.5 - 0.0
29/10:00am 12.9 8.5 4.6 57 3.9 NNW 17 24 9 13 1023.6 1023.8 0.0
29/09:30am 11.6 7.1 4.3 61 3.4 NNW 17 22 9 12 1023.5 - 0.0
29/09:00am 10.9 6.8 4.1 63 3.1 N 15 19 8 10 1023.5 1023.7 0.0
29/08:30am 9.4 6.0 4.0 69 2.5 N 11 15 6 8 1023.4 - 0.0
29/08:00am 7.5 3.5 3.0 73 2.0 N 13 15 7 8 1023.2 1023.4 0.0
29/07:30am 7.0 2.6 2.7 74 1.9 N 15 20 8 11 1023.0 - 0.0
29/07:00am 5.7 1.2 2.4 79 1.4 N 15 17 8 9 1022.7 1022.8 0.0
29/06:30am 5.9 1.4 2.2 77 1.6 N 15 17 8 9 1022.6 - 0.0
29/06:00am 5.9 1.1 2.4 78 1.5 N 17 19 9 10 1022.2 1022.4 0.0
29/05:30am 5.3 0.8 2.0 79 1.4 N 15 19 8 10 1021.8 - 0.0
29/05:00am 7.3 3.6 2.2 70 2.2 N 11 13 6 7 1021.6 1021.7 0.0
29/04:30am 7.7 4.4 2.4 69 2.3 N 9 11 5 6 1021.5 - 0.0
29/04:00am 7.5 3.8 2.6 71 2.1 N 11 13 6 7 1021.3 1021.4 0.0
29/03:30am 7.3 3.6 2.2 70 2.2 N 11 13 6 7 1021.2 - 0.0
29/03:00am 8.7 5.4 2.3 64 2.8 N 9 15 5 8 1021.2 1021.3 0.0
29/02:30am 8.6 5.3 2.6 66 2.6 NNE 9 15 5 8 1021.2 - 0.0
29/02:00am 8.5 5.2 2.7 67 2.5 N 9 19 5 10 1021.6 1021.7 0.0
29/01:30am 7.9 4.5 2.0 66 2.5 N 9 15 5 8 1021.7 - 0.0
29/01:00am 8.5 5.2 2.3 65 2.7 N 9 15 5 8 1021.9 1022.1 0.0
29/12:30am 8.5 5.2 2.5 66 2.6 N 9 20 5 11 1021.9 - 0.0
29/12:00am 9.2 6.3 2.5 63 2.9 N 7 15 4 8 1022.1 1022.3 0.0
 
Date/Time
EST
Temp
°C
App
Temp
°C
Dew
Point
Rel
Hum
%
Delta-T
°C
Wind Press
QNH
hPa
Press
MSL
hPa
Rain
since 9 am
mm
Dir
 
Spd
km/h
Gust
km/h
Spd
kts
Gust
kts
28/11:30pm 9.1 5.8 2.7 64 2.8 NNW 9 15 5 8 1022.3 - 0.0
28/11:00pm 9.1 6.4 2.4 63 2.9 W 6 11 3 6 1022.6 1022.7 0.0
28/10:30pm 9.8 6.9 2.6 61 3.2 W 7 13 4 7 1022.7 - 0.0
28/10:00pm 9.5 6.6 2.4 61 3.1 WSW 7 15 4 8 1022.8 1022.9 0.0
28/09:30pm 9.8 6.6 3.3 64 2.9 W 9 15 5 8 1022.8 - 0.0
28/09:00pm 8.9 6.2 3.5 69 2.4 NW 7 15 4 8 1022.6 1022.7 0.0
28/08:30pm 9.1 6.0 3.5 68 2.5 WNW 9 19 5 10 1022.3 - 0.0
28/08:00pm 8.9 5.4 3.3 68 2.5 WNW 11 11 6 6 1022.5 1022.6 0.0
28/07:30pm 9.0 5.8 3.0 66 2.7 WNW 9 11 5 6 1022.5 - 0.0
28/07:00pm 9.3 5.8 3.3 66 2.7 WNW 11 11 6 6 1022.3 1022.5 0.0
28/06:30pm 9.4 5.5 3.4 66 2.7 WNW 13 15 7 8 1022.3 - 0.0
28/06:00pm 9.8 5.9 3.3 64 2.9 WNW 13 13 7 7 1021.9 1022.1 0.0
28/05:30pm 10.7 7.2 3.7 62 3.2 WNW 11 13 6 7 1021.9 - 0.0
28/05:00pm 12.7 9.3 4.2 56 4.0 WNW 11 15 6 8 1021.7 1021.9 0.0
28/04:30pm 13.8 9.9 3.6 50 4.8 NW 13 17 7 9 1021.6 - 0.0
28/04:00pm 14.2 10.0 3.7 49 4.9 WNW 15 20 8 11 1021.7 1021.9 0.0
28/03:30pm 14.6 11.1 3.4 47 5.3 W 11 20 6 11 1021.7 - 0.0
28/03:00pm 15.0 12.0 4.1 48 5.2 WSW 9 20 5 11 1021.7 1021.9 0.0
28/02:30pm 15.2 11.9 4.6 49 5.1 W 11 20 6 11 1021.7 - 0.0
28/02:00pm 14.9 11.6 4.3 49 5.1 W 11 19 6 10 1021.7 1021.9 0.0
28/01:30pm 14.8 11.8 3.9 48 5.2 W 9 19 5 10 1022.0 - 0.0
28/01:00pm 14.3 11.2 3.5 48 5.1 W 9 15 5 8 1022.5 1022.6 0.0
28/12:30pm 14.3 11.4 4.6 52 4.7 NW 9 20 5 11 1023.1 - 0.0
28/12:00pm 13.6 10.5 3.4 50 4.7 W 9 19 5 10 1023.5 1023.7 0.0
28/11:30am 13.9 10.6 4.8 54 4.4 SW 11 20 6 11 1023.8 - 0.0
28/11:00am 13.7 10.4 4.3 53 4.4 SW 11 20 6 11 1024.4 1024.6 0.0
28/10:30am 12.5 7.8 2.9 52 4.4 SSW 17 26 9 14 1024.7 - 0.0
28/10:00am 12.1 8.6 3.3 55 4.0 WSW 11 17 6 9 1024.8 1025.0 0.0
28/09:30am 11.9 9.0 4.6 61 3.4 WNW 9 15 5 8 1024.9 - 0.0
28/09:00am 10.8 7.4 4.0 63 3.1 WNW 11 15 6 8 1024.6 1024.8 0.0
28/08:30am 10.3 7.0 4.7 68 2.6 W 11 13 6 7 1024.5 - 0.0
28/08:00am 8.8 5.6 5.2 78 1.7 W 11 13 6 7 1024.6 1024.8 0.0
28/07:30am 7.6 4.5 3.5 75 1.8 WSW 9 11 5 6 1024.5 - 0.0
28/07:00am 6.9 3.7 3.3 78 1.6 WSW 9 20 5 11 1024.0 1024.2 0.0
28/06:30am 6.9 3.3 3.2 77 1.6 W 11 11 6 6 1023.8 - 0.0
28/06:00am 6.9 4.1 3.0 76 1.7 WSW 7 20 4 11 1023.4 1023.6 0.0
28/05:30am 7.0 3.8 3.3 77 1.6 SW 9 17 5 9 1023.2 - 0.0
28/05:00am 6.9 3.3 3.2 77 1.6 WSW 11 13 6 7 1023.2 1023.4 0.0
28/04:30am 6.0 2.7 2.6 79 1.5 W 9 11 5 6 1023.2 - 0.0
28/04:00am 5.9 2.3 3.2 83 1.2 W 11 13 6 7 1023.3 1023.5 0.0
28/03:30am 6.5 2.7 3.8 83 1.2 WSW 13 15 7 8 1023.6 - 0.0
28/03:00am 6.0 2.6 3.8 86 1.0 WSW 11 13 6 7 1023.4 1023.6 0.0
28/02:30am 6.3 2.6 4.3 87 0.9 WSW 13 15 7 8 1023.4 - 0.0
28/02:00am 6.4 3.0 4.1 85 1.0 SW 11 13 6 7 1023.3 1023.5 0.0
28/01:30am 6.7 3.4 4.5 86 1.0 WSW 11 13 6 7 1023.3 - 0.0
28/01:00am 6.6 3.6 4.3 85 1.0 WSW 9 11 5 6 1023.4 1023.6 0.0
28/12:30am 7.0 4.1 4.7 85 1.0 SW 9 15 5 8 1023.5 - 0.0
28/12:00am 7.6 4.7 4.7 82 1.3 SSW 9 20 5 11 1023.6 1023.8 0.0
 
Date/Time
EST
Temp
°C
App
Temp
°C
Dew
Point
Rel
Hum
%
Delta-T
°C
Wind Press
QNH
hPa
Press
MSL
hPa
Rain
since 9 am
mm
Dir
 
Spd
km/h
Gust
km/h
Spd
kts
Gust
kts
27/11:30pm 7.7 5.3 5.2 84 1.2 SSW 7 15 4 8 1024.0 - 0.0
27/11:00pm 7.5 5.3 5.1 85 1.1 SW 6 11 3 6 1024.6 1024.8 0.0
27/10:30pm 7.3 5.0 4.9 85 1.1 W 6 11 3 6 1025.1 - 0.0
27/10:00pm 7.2 4.9 5.0 86 1.0 WSW 6 15 3 8 1025.8 1026.0 0.0
27/09:30pm 7.3 4.1 4.9 85 1.1 WSW 11 15 6 8 1025.9 - 0.0
27/09:00pm 7.0 4.1 4.5 84 1.1 W 9 20 5 11 1025.8 1026.0 0.0
27/08:30pm 7.4 4.5 4.5 82 1.3 W 9 15 5 8 1025.9 - 0.0
27/08:00pm 8.1 4.1 4.9 80 1.5 SW 15 20 8 11 1025.8 1026.0 0.0
27/07:30pm 8.8 4.7 4.6 75 1.9 WSW 15 19 8 10 1025.6 - 0.0
27/07:00pm 8.9 5.2 4.3 73 2.1 SW 13 17 7 9 1025.4 1025.6 0.0
27/06:30pm 9.4 5.7 4.2 70 2.4 WSW 13 17 7 9 1025.2 - 0.0
27/06:00pm 10.0 6.2 3.7 65 2.9 SW 13 19 7 10 1024.9 1025.1 0.0
27/05:30pm 10.6 6.7 3.4 61 3.3 SW 13 17 7 9 1024.7 - 0.0
27/05:00pm 11.9 8.1 3.7 57 3.8 SW 13 19 7 10 1024.5 1024.7 0.0
27/04:30pm 12.8 8.7 4.5 57 3.9 SW 15 17 8 9 1024.3 - 0.0
27/04:00pm 13.5 9.4 4.4 54 4.3 WSW 15 20 8 11 1024.3 1024.4 0.0
27/03:30pm 13.8 9.4 4.9 55 4.3 SW 17 26 9 14 1024.2 - 0.0
27/03:00pm 14.2 10.0 5.8 57 4.1 SW 17 24 9 13 1024.0 1024.2 0.0
27/02:30pm 14.0 9.7 5.1 55 4.3 SW 17 26 9 14 1024.0 - 0.0
27/02:00pm 14.2 9.5 5.3 55 4.3 SSW 19 28 10 15 1024.3 1024.4 0.0
27/01:30pm 14.0 9.1 5.1 55 4.3 SW 20 28 11 15 1024.6 - 0.0
27/01:00pm 13.6 8.7 5.0 56 4.1 SSW 20 28 11 15 1025.0 1025.2 0.0
27/12:30pm 13.3 8.0 5.0 57 4.0 S 22 28 12 15 1025.4 - 0.0
27/12:00pm 13.0 8.0 4.4 56 4.1 SSW 20 24 11 13 1025.8 1026.0 0.0
27/11:30am 12.8 7.0 4.5 57 3.9 S 24 32 13 17 1026.3 - 0.0
27/11:00am 12.1 6.0 4.8 61 3.4 S 26 33 14 18 1026.7 1026.9 0.0
27/10:30am 11.7 6.5 5.3 65 3.1 S 22 28 12 15 1027.1 - 0.0
27/10:00am 11.0 6.4 6.4 73 2.2 S 20 28 11 15 1027.1 1027.4 0.0
27/09:30am 10.1 5.7 7.5 84 1.3 SSW 20 26 11 14 1027.0 - 0.0
27/09:00am 8.9 5.2 7.8 93 0.5 S 17 20 9 11 1026.9 1027.1 0.2
27/08:30am 7.7 4.1 6.6 93 0.5 S 15 17 8 9 1026.6 - 0.2
27/08:00am 7.1 3.4 6.5 96 0.3 S 15 19 8 10 1026.3 1026.5 0.2
27/07:30am 6.4 3.1 6.3 99 0.0 S 13 17 7 9 1026.0 - 0.2
27/07:00am 5.8 2.4 5.7 99 0.0 S 13 15 7 8 1025.9 1026.1 0.2
27/06:30am 6.3 2.9 5.7 96 0.3 SSW 13 17 7 9 1025.6 - 0.0
27/06:00am 6.5 3.5 5.9 96 0.3 SSW 11 17 6 9 1025.5 1025.7 0.0
27/05:30am 6.5 3.4 5.6 94 0.4 SSW 11 15 6 8 1025.5 - 0.0
27/05:00am 6.5 3.3 5.3 92 0.5 SSW 11 15 6 8 1025.2 1025.4 0.0
27/04:30am 7.0 3.9 5.5 90 0.7 SSW 11 15 6 8 1025.0 - 0.0
27/04:00am 7.1 3.6 5.3 88 0.8 SW 13 17 7 9 1025.0 1025.2 0.0
27/03:30am 7.4 4.3 5.7 89 0.8 WSW 11 17 6 9 1025.1 - 0.0
27/03:00am 7.5 3.6 5.5 87 0.9 SW 15 19 8 10 1025.2 1025.4 0.0
27/02:30am 7.6 4.1 5.4 86 1.0 SW 13 19 7 10 1025.6 - 0.0
27/02:00am 8.1 3.9 5.7 85 1.1 SW 17 20 9 11 1025.5 1025.7 0.0
27/01:30am 8.0 4.1 5.5 84 1.2 SW 15 20 8 11 1025.6 - 0.0
27/01:00am 8.0 4.0 5.1 82 1.3 SW 15 17 8 9 1025.9 1026.1 0.0
27/12:30am 8.2 4.6 5.1 81 1.4 SW 13 17 7 9 1026.1 - 0.0
27/12:00am 8.2 4.5 4.6 78 1.6 SW 13 17 7 9 1026.1 1026.3 0.0
 
Date/Time
EST
Temp
°C
App
Temp
°C
Dew
Point
Rel
Hum
%
Delta-T
°C
Wind Press
QNH
hPa
Press
MSL
hPa
Rain
since 9 am
mm
Dir
 
Spd
km/h
Gust
km/h
Spd
kts
Gust
kts
26/11:30pm 8.8 5.2 4.8 76 1.8 SW 13 20 7 11 1026.3 - 0.0
26/11:00pm 8.9 5.6 4.5 74 2.0 SSW 11 17 6 9 1026.3 1026.5 0.0
26/10:30pm 9.2 5.5 4.6 73 2.1 SSW 13 17 7 9 1026.4 - 0.0
26/10:00pm 9.2 5.9 4.6 73 2.1 SSW 11 17 6 9 1026.4 1026.6 0.0
26/09:30pm 9.8 5.4 4.6 70 2.4 SW 17 22 9 12 1026.3 - 0.0
26/09:00pm 10.3 5.5 4.7 68 2.6 SW 19 24 10 13 1026.2 1026.4 0.0
26/08:30pm 10.4 5.9 4.3 66 2.8 SW 17 22 9 12 1026.1 - 0.0
26/08:00pm 10.7 5.9 4.4 65 2.9 SW 19 24 10 13 1025.8 1026.0 0.0
26/07:30pm 10.9 6.1 4.6 65 2.9 SW 19 26 10 14 1025.5 - 0.0
26/07:00pm 11.1 6.1 4.8 65 3.0 SW 20 28 11 15 1025.2 1025.4 0.0
26/06:30pm 11.3 6.5 4.7 64 3.1 SW 19 24 10 13 1025.0 - 0.0
26/06:00pm 11.7 6.9 4.9 63 3.2 SW 19 22 10 12 1024.8 1025.0 0.0
26/05:30pm 12.2 8.2 4.9 61 3.5 SW 15 20 8 11 1024.3 - 0.0
26/05:00pm 13.1 8.7 4.5 56 4.1 SW 17 26 9 14 1023.9 1024.1 0.0

Other Formats:

Comma delimited format used in spreadsheet applications
http://www.bom.gov.au/fwo/IDN60801/IDN60801.95728.axf

JavaScript Object Notation format (JSON) in row-major order
http://www.bom.gov.au/fwo/IDN60801/IDN60801.95728.json